Time;durP1;ratioP1;P1;durP2;ratioP2;P2;SDS_P1;SDS_P2;PMS_P1;PMS_P2;Temp;Humidity;BMP_temperature;BMP_pressure;BME280_temperature;BME280_humidity;BME280_pressure;Samples;Min_cycle;Max_cycle;Signal;HPM_P1;HPM_P2
2022/07/08 00:00:18;;;;;;;8.20;2.73;;;17.20;38.40;;;;;;4829341;29;20510;-76
2022/07/08 00:02:45;;;;;;;6.67;2.40;;;17.10;38.30;;;;;;4829764;29;20459;-77
2022/07/08 00:05:12;;;;;;;7.70;2.97;;;17.00;38.20;;;;;;4830441;29;20463;-78
2022/07/08 00:07:39;;;;;;;8.87;2.80;;;17.10;38.40;;;;;;4832157;29;20468;-77
2022/07/08 00:10:08;;;;;;;6.50;2.70;;;17.10;38.30;;;;;;4831658;29;20528;-77
2022/07/08 00:12:35;;;;;;;7.43;2.87;;;17.00;38.50;;;;;;4831973;29;20444;-77
2022/07/08 00:15:03;;;;;;;5.70;2.97;;;16.90;38.80;;;;;;4834689;29;20967;-77
2022/07/08 00:17:30;;;;;;;7.33;2.87;;;16.80;39.00;;;;;;4850224;29;20510;-76
2022/07/08 00:19:56;;;;;;;5.27;2.70;;;16.80;39.30;;;;;;4849982;29;20481;-77
2022/07/08 00:22:23;;;;;;;5.00;2.90;;;16.70;39.50;;;;;;4849157;29;20463;-78
2022/07/08 00:24:50;;;;;;;7.67;3.20;;;16.70;39.60;;;;;;4847348;29;20482;-77
2022/07/08 00:27:18;;;;;;;6.23;3.10;;;16.50;40.10;;;;;;4845973;29;20519;-78
2022/07/08 00:29:45;;;;;;;6.63;2.93;;;16.40;41.20;;;;;;4850422;29;20483;-77
2022/07/08 00:32:12;;;;;;;4.60;2.57;;;16.40;40.60;;;;;;4845592;29;20459;-77
2022/07/08 00:34:39;;;;;;;9.63;3.23;;;16.30;40.80;;;;;;4844579;29;20474;-77
2022/07/08 00:37:06;;;;;;;7.15;3.47;;;16.30;41.00;;;;;;4844677;29;20463;-79
2022/07/08 00:39:33;;;;;;;6.10;2.92;;;16.10;41.40;;;;;;4845101;29;20289;-77
2022/07/08 00:41:59;;;;;;;4.30;2.77;;;16.10;41.50;;;;;;4846013;29;20221;-77
2022/07/08 00:44:28;;;;;;;10.63;3.37;;;16.00;41.80;;;;;;4853048;29;20451;-77
2022/07/08 00:46:55;;;;;;;7.70;3.67;;;15.90;42.10;;;;;;4855313;29;20470;-76
2022/07/08 00:49:21;;;;;;;8.25;3.92;;;15.80;42.20;;;;;;4852138;29;20550;-77
2022/07/08 00:51:49;;;;;;;4.50;3.20;;;15.80;42.40;;;;;;4859544;29;20551;-77
2022/07/08 00:54:19;;;;;;;8.60;3.80;;;15.70;42.50;;;;;;4857814;29;20218;-76
2022/07/08 00:56:46;;;;;;;9.48;3.70;;;15.60;43.10;;;;;;4860073;29;20246;-78
2022/07/08 00:59:13;;;;;;;5.80;3.40;;;15.50;43.30;;;;;;4858449;29;20245;-76
2022/07/08 01:01:42;;;;;;;4.53;3.65;;;15.50;43.50;;;;;;4857590;29;20467;-77
2022/07/08 01:04:09;;;;;;;5.03;3.65;;;15.40;43.80;;;;;;4850701;29;20218;-78
2022/07/08 01:06:35;;;;;;;11.57;3.53;;;15.40;44.40;;;;;;4848700;29;20221;-78
2022/07/08 01:09:03;;;;;;;8.43;3.88;;;15.30;44.40;;;;;;4847916;29;20244;-76
2022/07/08 01:11:30;;;;;;;5.55;3.22;;;15.30;44.40;;;;;;4843961;29;20212;-77
2022/07/08 01:13:57;;;;;;;6.22;4.00;;;15.20;44.40;;;;;;4843931;29;20228;-77
2022/07/08 01:16:24;;;;;;;6.63;3.80;;;15.10;44.30;;;;;;4843957;29;20218;-77
2022/07/08 01:18:52;;;;;;;5.47;3.57;;;15.10;44.30;;;;;;4852972;29;20487;-77
2022/07/08 01:21:20;;;;;;;5.78;3.88;;;15.10;44.30;;;;;;4844158;29;20504;-78
2022/07/08 01:23:47;;;;;;;7.55;4.00;;;15.00;44.90;;;;;;4850683;29;20667;-77
2022/07/08 01:26:14;;;;;;;4.67;3.27;;;15.00;44.20;;;;;;4849165;29;20224;-77
2022/07/08 01:28:43;;;;;;;6.93;3.30;;;14.90;44.40;;;;;;4842335;29;20471;-77
2022/07/08 01:31:09;;;;;;;11.10;4.20;;;14.90;44.40;;;;;;4842244;29;20679;-78
2022/07/08 01:33:36;;;;;;;7.50;3.80;;;14.90;44.10;;;;;;4843068;29;20323;-77
2022/07/08 01:36:03;;;;;;;8.27;3.90;;;14.90;45.80;;;;;;4843484;29;20433;-77
2022/07/08 01:38:31;;;;;;;5.82;3.63;;;14.80;45.10;;;;;;4854627;29;20214;-77
2022/07/08 01:40:58;;;;;;;8.73;4.00;;;14.80;45.20;;;;;;4845706;29;20245;-77
2022/07/08 01:43:25;;;;;;;6.60;3.90;;;14.80;44.80;;;;;;4842409;29;20675;-78
2022/07/08 01:45:52;;;;;;;5.80;3.65;;;14.70;45.40;;;;;;4842868;29;20557;-77
2022/07/08 01:48:19;;;;;;;5.97;4.03;;;14.70;45.50;;;;;;4842489;29;20624;-78
2022/07/08 01:50:46;;;;;;;7.73;3.80;;;14.60;45.70;;;;;;4842643;29;20236;-76
2022/07/08 01:53:13;;;;;;;4.70;3.45;;;14.60;46.00;;;;;;4844577;29;20463;-76
2022/07/08 01:55:41;;;;;;;7.25;3.80;;;14.60;46.00;;;;;;4846395;29;20224;-76
2022/07/08 01:58:11;;;;;;;4.93;3.63;;;14.60;46.20;;;;;;4847741;29;20220;-76
2022/07/08 02:00:37;;;;;;;9.70;3.93;;;14.60;45.90;;;;;;4848243;29;20506;-77
2022/07/08 02:03:05;;;;;;;6.17;4.13;;;14.60;46.00;;;;;;4845828;29;20809;-78
2022/07/08 02:05:34;;;;;;;8.60;3.93;;;14.60;46.10;;;;;;4845327;29;20912;-76
2022/07/08 02:08:02;;;;;;;8.50;4.15;;;14.50;46.10;;;;;;4846321;29;20547;-77
2022/07/08 02:12:18;;;;;;;4.93;3.77;;;14.40;46.90;;;;;;4848565;29;20295;-78
2022/07/08 02:13:17;;;;;;;11.70;4.00;;;14.40;46.70;;;;;;4853539;29;20915;-77
2022/07/08 02:15:44;;;;;;;6.85;4.00;;;14.40;46.70;;;;;;4847733;29;20221;-77
2022/07/08 02:18:11;;;;;;;5.72;4.07;;;14.40;47.00;;;;;;4847417;29;20227;-77
2022/07/08 02:20:38;;;;;;;5.57;3.43;;;14.40;47.20;;;;;;4848523;29;20240;-78
2022/07/08 02:23:05;;;;;;;5.63;3.55;;;14.30;47.50;;;;;;4856131;29;20949;-77
2022/07/08 02:25:32;;;;;;;5.03;4.00;;;14.30;47.60;;;;;;4851431;29;20627;-77
2022/07/08 02:27:59;;;;;;;14.13;4.17;;;14.40;48.50;;;;;;4848203;29;20210;-76
2022/07/08 02:30:27;;;;;;;6.88;3.80;;;14.40;47.30;;;;;;4848270;29;20479;-77
2022/07/08 02:32:54;;;;;;;5.82;3.60;;;14.40;47.40;;;;;;4847716;29;20249;-77
2022/07/08 02:35:21;;;;;;;5.15;3.75;;;14.30;47.50;;;;;;4847896;29;20220;-77
2022/07/08 02:37:48;;;;;;;4.55;3.67;;;14.30;47.70;;;;;;4848517;29;20224;-78
2022/07/08 02:40:14;;;;;;;7.18;3.78;;;14.20;48.20;;;;;;4848127;29;20637;-78
2022/07/08 02:42:41;;;;;;;5.20;3.30;;;14.20;49.00;;;;;;4848106;29;20281;-77
2022/07/08 02:45:09;;;;;;;9.30;4.00;;;14.20;48.70;;;;;;4848621;29;20536;-78
2022/07/08 02:47:37;;;;;;;6.27;4.13;;;14.10;48.60;;;;;;4849204;29;20250;-78
2022/07/08 02:50:05;;;;;;;4.85;4.30;;;14.10;49.10;;;;;;4856508;29;20507;-78
2022/07/08 02:52:32;;;;;;;5.50;3.87;;;14.10;49.10;;;;;;4865706;29;20224;-76
2022/07/08 02:54:59;;;;;;;6.07;4.13;;;14.00;49.20;;;;;;4862070;29;20535;-77
2022/07/08 02:57:26;;;;;;;6.35;3.88;;;14.00;49.60;;;;;;4865001;29;20221;-78
2022/07/08 02:59:53;;;;;;;5.53;3.80;;;14.00;50.10;;;;;;4866003;29;20260;-76
2022/07/08 03:02:19;;;;;;;8.32;3.80;;;13.90;50.60;;;;;;4865119;29;20202;-78
2022/07/08 03:04:48;;;;;;;7.22;4.20;;;13.90;50.60;;;;;;4865231;29;20214;-76
2022/07/08 03:07:14;;;;;;;7.80;3.85;;;13.90;50.50;;;;;;4855925;29;20217;-77
2022/07/08 03:09:41;;;;;;;5.82;3.85;;;13.90;50.30;;;;;;4850512;29;20364;-79
2022/07/08 03:12:09;;;;;;;8.65;3.72;;;13.90;50.70;;;;;;4849639;29;20214;-76
2022/07/08 03:14:36;;;;;;;6.13;3.80;;;13.90;50.50;;;;;;4850211;29;20564;-77
2022/07/08 03:17:03;;;;;;;7.78;4.15;;;13.90;50.80;;;;;;4849274;29;20216;-77
2022/07/08 03:19:30;;;;;;;6.20;4.47;;;13.90;50.90;;;;;;4846854;29;20318;-77
2022/07/08 03:21:58;;;;;;;8.18;3.80;;;13.80;50.40;;;;;;4849072;29;20447;-77
2022/07/08 03:24:24;;;;;;;7.00;3.92;;;13.80;50.40;;;;;;4848710;29;20552;-77
2022/07/08 03:26:51;;;;;;;7.88;4.05;;;13.80;50.50;;;;;;4858544;29;20373;-77
2022/07/08 03:29:18;;;;;;;9.30;4.53;;;13.80;51.10;;;;;;4855864;29;20241;-76
2022/07/08 03:31:45;;;;;;;6.40;4.07;;;13.70;50.60;;;;;;4848540;29;20191;-77
2022/07/08 03:34:12;;;;;;;6.03;4.10;;;13.70;51.00;;;;;;4844661;29;20749;-76
2022/07/08 03:36:39;;;;;;;5.82;4.20;;;13.70;51.20;;;;;;4845144;29;20220;-77
2022/07/08 03:39:07;;;;;;;8.20;4.68;;;13.70;51.20;;;;;;4844916;29;20246;-76
2022/07/08 03:41:33;;;;;;;7.57;4.15;;;13.70;51.30;;;;;;4847321;29;20233;-77
2022/07/08 03:44:00;;;;;;;7.88;4.80;;;13.70;51.20;;;;;;4851919;29;20206;-77
2022/07/08 03:46:27;;;;;;;6.80;3.50;;;13.70;51.80;;;;;;4862030;29;20237;-77
2022/07/08 03:48:54;;;;;;;8.75;4.47;;;13.80;52.50;;;;;;4864130;29;20710;-76
2022/07/08 03:51:23;;;;;;;10.25;4.70;;;13.80;52.90;;;;;;4863665;29;20294;-77
2022/07/08 03:53:49;;;;;;;9.25;5.05;;;13.80;52.30;;;;;;4858413;29;20263;-77
2022/07/08 03:56:18;;;;;;;8.15;3.90;;;13.80;52.80;;;;;;4853102;29;20220;-76
2022/07/08 03:58:44;;;;;;;6.05;4.57;;;13.80;52.30;;;;;;4844880;29;20218;-77
2022/07/08 04:01:11;;;;;;;12.90;4.68;;;13.90;52.90;;;;;;4843966;29;20236;-77
2022/07/08 04:03:38;;;;;;;7.68;4.00;;;13.90;52.00;;;;;;4843610;29;20320;-77
2022/07/08 04:06:05;;;;;;;11.30;4.40;;;13.90;52.00;;;;;;4845065;29;20217;-77
2022/07/08 04:08:32;;;;;;;5.00;3.65;;;13.90;51.60;;;;;;4846538;29;20686;-77
2022/07/08 04:10:59;;;;;;;5.40;3.95;;;13.90;51.50;;;;;;4854339;29;20214;-77
2022/07/08 04:13:27;;;;;;;6.38;3.60;;;14.00;51.30;;;;;;4863372;29;20273;-76
2022/07/08 04:15:55;;;;;;;6.57;3.35;;;14.00;51.50;;;;;;4860765;29;20229;-78
2022/07/08 04:18:22;;;;;;;7.75;4.30;;;14.10;50.80;;;;;;4848781;29;20669;-76
2022/07/08 04:20:49;;;;;;;5.25;3.45;;;14.10;50.40;;;;;;4843152;29;20673;-78
2022/07/08 04:23:16;;;;;;;7.85;3.70;;;14.20;50.00;;;;;;4843140;29;20210;-77
2022/07/08 04:25:42;;;;;;;4.27;3.30;;;14.20;49.60;;;;;;4843814;29;20222;-77
2022/07/08 04:28:09;;;;;;;10.25;4.15;;;14.30;49.30;;;;;;4847524;29;20531;-76
2022/07/08 04:30:37;;;;;;;3.53;3.20;;;14.40;49.20;;;;;;4847227;29;20954;-76
2022/07/08 04:33:05;;;;;;;9.00;3.55;;;14.50;49.00;;;;;;4862105;29;20220;-77
2022/07/08 04:35:32;;;;;;;7.97;3.63;;;14.50;49.00;;;;;;4861602;29;20840;-77
2022/07/08 04:37:59;;;;;;;8.87;3.20;;;14.60;48.40;;;;;;4861856;29;20659;-78
2022/07/08 04:40:26;;;;;;;6.73;3.93;;;14.70;48.10;;;;;;4861653;29;20533;-77
2022/07/08 04:42:53;;;;;;;6.50;3.10;;;14.70;47.90;;;;;;4861705;29;20967;-78
2022/07/08 04:45:20;;;;;;;6.20;3.27;;;14.70;48.40;;;;;;4861625;29;20942;-77
2022/07/08 04:47:48;;;;;;;7.73;3.27;;;14.80;48.20;;;;;;4861194;29;20464;-78
2022/07/08 04:50:15;;;;;;;5.00;3.83;;;14.90;47.10;;;;;;4858383;29;20487;-77
2022/07/08 04:52:41;;;;;;;8.17;3.33;;;15.00;47.00;;;;;;4842855;29;20210;-78
2022/07/08 04:55:27;;;;;;;4.47;3.50;;;15.00;46.60;;;;;;4842732;29;20585;-77
2022/07/08 04:57:54;;;;;;;6.40;3.53;;;15.20;46.30;;;;;;4842833;29;20454;-77
2022/07/08 05:00:21;;;;;;;6.20;3.00;;;15.40;46.00;;;;;;4843997;29;20541;-77
2022/07/08 05:02:49;;;;;;;6.60;2.60;;;15.50;45.20;;;;;;4844356;29;20549;-77
2022/07/08 05:05:16;;;;;;;8.73;3.00;;;16.00;45.10;;;;;;4833180;29;20510;-76
2022/07/08 05:07:43;;;;;;;4.77;2.90;;;16.80;42.70;;;;;;4826983;29;20470;-77
2022/07/08 05:10:10;;;;;;;5.43;3.10;;;17.60;40.70;;;;;;4826257;29;21000;-76
2022/07/08 05:12:37;;;;;;;5.77;2.07;;;18.50;37.40;;;;;;4839467;29;20543;-76
2022/07/08 05:15:04;;;;;;;5.50;2.80;;;19.20;36.30;;;;;;4842908;29;20948;-77
2022/07/08 05:17:31;;;;;;;5.77;2.17;;;19.60;34.70;;;;;;4842866;29;20869;-76
2022/07/08 05:19:59;;;;;;;4.67;2.40;;;20.00;33.70;;;;;;4842648;29;20486;-76
2022/07/08 05:22:26;;;;;;;3.33;2.27;;;20.40;32.60;;;;;;4842499;29;20476;-75
2022/07/08 05:24:53;;;;;;;4.07;2.10;;;20.50;31.10;;;;;;4843088;29;20441;-77
2022/07/08 05:27:20;;;;;;;4.87;2.00;;;20.40;32.00;;;;;;4843129;29;20754;-76
2022/07/08 05:29:47;;;;;;;7.40;3.10;;;20.30;31.20;;;;;;4842809;29;20591;-77
2022/07/08 05:32:14;;;;;;;6.23;2.50;;;20.00;32.30;;;;;;4843459;29;20459;-79
2022/07/08 05:34:44;;;;;;;6.67;2.53;;;20.10;31.80;;;;;;4854972;29;20558;-79
2022/07/08 05:37:12;;;;;;;2.83;2.03;;;20.20;31.90;;;;;;4844821;29;20447;-78
2022/07/08 05:39:39;;;;;;;5.23;2.53;;;20.60;30.70;;;;;;4844217;29;20462;-77
2022/07/08 05:42:07;;;;;;;6.77;2.50;;;20.70;30.00;;;;;;4842476;29;20494;-79
2022/07/08 05:44:34;;;;;;;6.20;2.17;;;20.70;30.00;;;;;;4843491;29;20470;-78
2022/07/08 05:47:01;;;;;;;4.70;2.23;;;20.50;30.20;;;;;;4843629;29;20562;-78
2022/07/08 05:49:28;;;;;;;6.17;3.37;;;20.50;30.00;;;;;;4844122;29;20546;-79
2022/07/08 05:51:55;;;;;;;3.13;2.57;;;20.60;29.90;;;;;;4843593;29;20451;-78
2022/07/08 05:54:23;;;;;;;8.77;2.30;;;20.50;30.20;;;;;;4843567;29;20557;-78
2022/07/08 05:56:50;;;;;;;5.93;2.30;;;20.70;30.00;;;;;;4844082;29;20438;-78
2022/07/08 05:59:17;;;;;;;7.10;2.40;;;21.00;29.60;;;;;;4843308;29;20991;-78
2022/07/08 06:01:43;;;;;;;3.63;2.20;;;21.00;29.60;;;;;;4843935;29;20525;-78
2022/07/08 06:04:10;;;;;;;4.67;1.67;;;21.50;30.00;;;;;;4843822;29;20930;-78
2022/07/08 06:06:37;;;;;;;4.80;2.00;;;21.90;28.50;;;;;;4844039;29;20540;-78
2022/07/08 06:09:04;;;;;;;3.03;2.23;;;22.10;28.20;;;;;;4844114;29;20555;-78
2022/07/08 06:11:32;;;;;;;3.80;2.10;;;22.10;28.00;;;;;;4861166;29;20473;-81
2022/07/08 06:14:00;;;;;;;3.33;2.17;;;21.90;28.80;;;;;;4851985;29;20522;-77
2022/07/08 06:16:26;;;;;;;5.73;2.13;;;22.00;28.40;;;;;;4846691;29;20469;-78
2022/07/08 06:18:53;;;;;;;9.87;2.67;;;22.20;28.00;;;;;;4843376;29;20479;-78
2022/07/08 06:21:20;;;;;;;4.30;1.50;;;21.90;28.50;;;;;;4843123;29;20536;-77
2022/07/08 06:23:47;;;;;;;5.10;2.40;;;22.00;28.50;;;;;;4843382;29;20967;-78
2022/07/08 06:26:14;;;;;;;5.47;2.43;;;22.50;27.60;;;;;;4843849;29;20918;-78
2022/07/08 06:28:42;;;;;;;4.43;1.93;;;22.50;27.80;;;;;;4846418;29;20471;-79
2022/07/08 06:31:09;;;;;;;4.77;2.10;;;21.90;28.80;;;;;;4851745;29;20438;-78
2022/07/08 06:33:36;;;;;;;5.73;2.13;;;22.20;27.60;;;;;;4859483;29;20437;-79
2022/07/08 06:36:03;;;;;;;3.63;1.43;;;21.80;27.90;;;;;;4858903;29;20584;-78
2022/07/08 06:38:30;;;;;;;9.07;1.90;;;21.60;28.20;;;;;;4852612;29;20535;-78
2022/07/08 06:40:57;;;;;;;5.07;2.30;;;21.20;29.00;;;;;;4853780;29;20503;-79
2022/07/08 06:43:24;;;;;;;5.23;1.77;;;21.20;29.80;;;;;;4858293;29;20471;-81
2022/07/08 06:45:52;;;;;;;5.90;2.10;;;20.50;29.60;;;;;;4856019;29;20549;-79
2022/07/08 06:48:19;;;;;;;5.77;2.23;;;20.80;29.50;;;;;;4851363;29;20461;-80
2022/07/08 06:50:46;;;;;;;4.70;2.17;;;20.50;29.20;;;;;;4854754;29;20482;-79
2022/07/08 06:53:12;;;;;;;4.83;1.70;;;20.60;29.40;;;;;;4849409;29;20993;-79
2022/07/08 06:55:40;;;;;;;4.40;1.80;;;20.80;29.50;;;;;;4856580;29;20501;-79
2022/07/08 06:58:06;;;;;;;5.30;2.37;;;20.90;29.50;;;;;;4857036;29;20466;-79
2022/07/08 07:00:33;;;;;;;3.67;1.90;;;20.70;29.40;;;;;;4852591;29;20498;-80
2022/07/08 07:03:01;;;;;;;4.27;1.87;;;20.50;29.20;;;;;;4852425;29;20589;-79
2022/07/08 07:05:28;;;;;;;6.70;1.93;;;20.80;29.50;;;;;;4853079;29;20462;-79
2022/07/08 07:07:55;;;;;;;3.83;2.10;;;20.60;29.40;;;;;;4849342;29;20952;-77
2022/07/08 07:10:22;;;;;;;6.10;2.20;;;20.20;29.80;;;;;;4846658;29;20806;-78
2022/07/08 07:12:49;;;;;;;4.53;2.03;;;19.60;30.90;;;;;;4846002;29;20530;-79
2022/07/08 07:15:16;;;;;;;2.87;2.13;;;18.50;32.90;;;;;;4845748;29;20537;-78
2022/07/08 07:17:43;;;;;;;4.30;2.20;;;17.90;35.00;;;;;;4847982;29;20553;-80
2022/07/08 07:20:12;;;;;;;3.33;2.10;;;18.00;34.70;;;;;;4847122;29;20497;-78
2022/07/08 07:22:39;;;;;;;6.73;2.40;;;18.00;34.60;;;;;;4850420;29;20469;-80
2022/07/08 07:25:07;;;;;;;4.30;2.40;;;18.10;35.50;;;;;;4857476;29;20491;-79
2022/07/08 07:27:34;;;;;;;6.93;2.27;;;18.30;34.40;;;;;;4858001;29;20459;-79
2022/07/08 07:30:01;;;;;;;7.53;2.23;;;18.40;33.50;;;;;;4861468;29;20506;-78
2022/07/08 07:32:27;;;;;;;6.27;1.83;;;18.50;33.60;;;;;;4861962;29;20462;-78
2022/07/08 07:34:54;;;;;;;4.53;1.60;;;18.40;33.20;;;;;;4847956;29;20944;-78
2022/07/08 07:37:22;;;;;;;3.47;1.83;;;18.40;33.20;;;;;;4846092;29;20467;-79
2022/07/08 07:39:49;;;;;;;2.40;1.70;;;18.50;32.60;;;;;;4845890;29;20479;-79
2022/07/08 07:42:16;;;;;;;4.27;1.80;;;18.50;33.20;;;;;;4850241;29;20549;-78
2022/07/08 07:44:43;;;;;;;3.30;1.90;;;18.80;32.70;;;;;;4849169;29;20585;-79
2022/07/08 07:47:10;;;;;;;4.60;2.20;;;18.90;32.30;;;;;;4847689;29;20903;-78
2022/07/08 07:49:36;;;;;;;9.43;2.10;;;18.90;32.20;;;;;;4847007;29;20503;-78
2022/07/08 07:52:04;;;;;;;3.20;2.03;;;18.80;32.50;;;;;;4846585;29;20465;-79
2022/07/08 07:54:36;;;;;;;4.63;2.10;;;18.70;32.20;;;;;;4846155;29;20498;-80
2022/07/08 07:57:04;;;;;;;6.20;2.07;;;18.60;32.50;;;;;;4852500;29;20538;-79
2022/07/08 07:59:31;;;;;;;2.27;1.50;;;18.40;31.80;;;;;;4859148;29;21010;-79
2022/07/08 08:01:58;;;;;;;3.73;1.80;;;18.20;32.90;;;;;;4851198;29;20457;-79
2022/07/08 08:04:24;;;;;;;7.83;1.83;;;18.50;32.20;;;;;;4848302;29;20467;-77
2022/07/08 08:06:51;;;;;;;5.83;2.43;;;18.70;31.50;;;;;;4850489;29;20455;-79
2022/07/08 08:09:18;;;;;;;3.80;1.80;;;18.80;31.40;;;;;;4849486;29;20543;-79
2022/07/08 08:11:46;;;;;;;6.30;1.90;;;18.80;31.50;;;;;;4857440;29;20570;-79
2022/07/08 08:14:13;;;;;;;3.50;2.00;;;18.90;30.80;;;;;;4850999;29;20466;-78
2022/07/08 08:16:40;;;;;;;4.03;1.93;;;19.00;30.00;;;;;;4850905;29;20485;-78
2022/07/08 08:19:07;;;;;;;4.87;1.70;;;19.20;30.00;;;;;;4852208;29;20944;-79
2022/07/08 08:21:36;;;;;;;2.00;1.47;;;18.70;30.90;;;;;;4852463;29;20505;-79
2022/07/08 08:24:03;;;;;;;3.13;1.77;;;19.10;29.60;;;;;;4851479;29;20498;-79
2022/07/08 08:26:30;;;;;;;2.87;1.40;;;19.30;28.70;;;;;;4851118;29;20539;-79
2022/07/08 08:28:58;;;;;;;6.43;2.40;;;19.40;28.50;;;;;;4851180;29;20479;-80
2022/07/08 08:31:26;;;;;;;6.50;1.40;;;19.60;28.60;;;;;;4849925;29;20505;-78
2022/07/08 08:33:52;;;;;;;2.87;1.40;;;19.40;29.30;;;;;;4848549;29;20521;-80
2022/07/08 08:36:19;;;;;;;6.53;1.70;;;19.70;28.70;;;;;;4851895;29;20482;-79
2022/07/08 08:38:46;;;;;;;4.20;1.80;;;20.00;28.90;;;;;;4848231;29;20561;-79
2022/07/08 08:41:13;;;;;;;3.27;1.67;;;20.20;28.60;;;;;;4851186;29;20441;-79
2022/07/08 08:43:44;;;;;;;3.97;1.80;;;20.50;28.20;;;;;;4846220;29;20837;-79
2022/07/08 08:46:13;;;;;;;5.00;1.93;;;20.40;28.90;;;;;;4845269;29;20483;-79
2022/07/08 08:48:41;;;;;;;2.90;1.30;;;20.70;28.00;;;;;;4849087;29;20490;-78
2022/07/08 08:51:10;;;;;;;9.97;1.90;;;21.00;27.40;;;;;;4850456;29;20478;-78
2022/07/08 08:53:40;;;;;;;4.87;1.83;;;20.70;27.00;;;;;;4848440;29;20471;-79
2022/07/08 08:56:10;;;;;;;5.43;2.07;;;20.20;28.10;;;;;;4850988;29;20463;-79
2022/07/08 08:58:38;;;;;;;5.90;1.50;;;20.10;28.00;;;;;;4850551;29;20868;-79
2022/07/08 09:01:07;;;;;;;3.10;1.57;;;20.00;28.30;;;;;;4846944;29;20462;-78
2022/07/08 09:03:36;;;;;;;6.60;2.00;;;19.20;28.30;;;;;;4856776;29;20956;-79
2022/07/08 09:06:03;;;;;;;2.40;1.40;;;19.60;28.60;;;;;;4860662;29;20514;-79
2022/07/08 09:08:30;;;;;;;6.43;2.00;;;19.70;28.70;;;;;;4858245;29;20463;-78
2022/07/08 09:10:57;;;;;;;8.50;2.30;;;19.60;28.60;;;;;;4857260;29;20470;-78
2022/07/08 09:13:25;;;;;;;3.97;2.00;;;19.60;28.60;;;;;;4863487;29;20578;-78
2022/07/08 09:15:57;;;;;;;2.63;1.90;;;19.50;28.50;;;;;;4864597;29;20471;-78
2022/07/08 09:18:29;;;;;;;3.23;2.20;;;19.50;28.50;;;;;;4864603;29;20523;-78
2022/07/08 09:20:59;;;;;;;2.73;1.90;;;19.80;28.80;;;;;;4856056;29;20447;-78
2022/07/08 09:23:29;;;;;;;2.87;1.60;;;20.10;28.60;;;;;;4855217;29;20519;-78
2022/07/08 09:25:58;;;;;;;2.93;2.00;;;20.70;27.50;;;;;;4862791;29;20427;-79
2022/07/08 09:28:30;;;;;;;5.30;2.20;;;21.10;26.30;;;;;;4861934;29;20482;-77
2022/07/08 09:30:58;;;;;;;4.20;2.00;;;20.60;26.50;;;;;;4874479;24;20528;-77
2022/07/08 09:33:26;;;;;;;3.90;1.47;;;20.50;26.50;;;;;;4872372;29;20458;-77
2022/07/08 09:35:54;;;;;;;3.73;1.70;;;20.30;26.80;;;;;;4873654;29;20453;-79
2022/07/08 09:38:24;;;;;;;4.60;2.00;;;20.70;25.90;;;;;;4872448;29;20436;-76
2022/07/08 09:40:55;;;;;;;2.30;1.60;;;20.80;26.20;;;;;;4870690;29;20594;-77
2022/07/08 09:43:22;;;;;;;3.23;1.47;;;21.10;25.60;;;;;;4876984;29;20625;-78
2022/07/08 09:45:49;;;;;;;4.30;1.80;;;21.30;25.00;;;;;;4876543;29;20584;-76
2022/07/08 09:48:16;;;;;;;3.80;1.80;;;21.10;25.60;;;;;;4871528;29;20530;-77
2022/07/08 09:50:45;;;;;;;5.83;2.23;;;20.80;26.40;;;;;;4877564;29;20564;-77
2022/07/08 09:53:17;;;;;;;4.83;1.90;;;20.70;25.90;;;;;;4878273;29;20474;-77
2022/07/08 09:55:47;;;;;;;3.20;1.60;;;20.50;26.70;;;;;;4876576;29;20545;-77
2022/07/08 09:58:15;;;;;;;3.30;1.53;;;20.90;25.90;;;;;;4874122;29;20977;-77
2022/07/08 10:00:44;;;;;;;4.37;1.63;;;21.00;25.30;;;;;;4878585;29;20499;-76
2022/07/08 10:03:11;;;;;;;2.83;1.80;;;20.80;25.70;;;;;;4881081;29;20528;-76
2022/07/08 10:05:39;;;;;;;6.10;1.63;;;20.40;26.40;;;;;;4876432;29;20525;-78
2022/07/08 10:08:07;;;;;;;4.30;1.87;;;20.20;26.70;;;;;;4878766;29;20523;-77
2022/07/08 10:10:34;;;;;;;5.30;2.00;;;20.50;26.00;;;;;;4876328;29;20460;-76
2022/07/08 10:13:04;;;;;;;3.27;1.20;;;20.40;26.60;;;;;;4876335;29;20454;-75
2022/07/08 10:15:32;;;;;;;5.13;1.70;;;20.60;26.40;;;;;;4876495;29;20461;-76
2022/07/08 10:18:06;;;;;;;4.30;1.67;;;20.80;26.50;;;;;;4876370;29;20518;-75
2022/07/08 10:20:36;;;;;;;2.50;1.20;;;21.00;26.10;;;;;;4876099;29;20542;-77
2022/07/08 10:23:07;;;;;;;2.80;1.97;;;20.90;26.20;;;;;;4875415;29;20546;-77
2022/07/08 10:25:34;;;;;;;4.60;1.67;;;21.00;25.60;;;;;;4871860;29;20466;-77
2022/07/08 10:28:07;;;;;;;6.07;1.97;;;20.50;25.80;;;;;;4874183;29;20436;-78
2022/07/08 10:30:51;;;;;;;5.43;1.93;;;20.20;26.70;;;;;;4878304;29;20588;-77
2022/07/08 10:33:25;;;;;;;5.30;1.93;;;20.20;26.50;;;;;;4878711;29;20488;-77
2022/07/08 10:36:02;;;;;;;3.60;1.60;;;20.30;27.00;;;;;;4882776;29;20452;-78
2022/07/08 10:38:31;;;;;;;6.40;1.83;;;20.80;26.20;;;;;;4884342;29;20509;-77
2022/07/08 10:41:02;;;;;;;6.33;1.90;;;20.70;26.40;;;;;;4878536;29;20511;-77
2022/07/08 10:43:31;;;;;;;2.77;1.70;;;20.90;25.90;;;;;;4877756;29;20490;-77
2022/07/08 10:46:17;;;;;;;3.73;1.93;;;20.60;26.70;;;;;;4876369;29;20560;-78
2022/07/08 10:48:54;;;;;;;4.13;1.87;;;20.80;26.50;;;;;;4873642;29;20962;-77
2022/07/08 10:51:47;;;;;;;4.17;1.70;;;21.00;25.70;;;;;;4871657;29;20485;-77
2022/07/08 10:54:35;;;;;;;3.43;1.90;;;21.20;25.70;;;;;;4875567;29;20492;-77
2022/07/08 10:57:02;;;;;;;2.50;1.63;;;21.10;25.60;;;;;;4879851;29;20568;-77
2022/07/08 10:59:32;;;;;;;3.10;1.70;;;21.00;25.50;;;;;;4873208;29;20524;-79
2022/07/08 11:02:02;;;;;;;3.57;2.00;;;21.00;25.90;;;;;;4873932;29;20509;-76
2022/07/08 11:04:32;;;;;;;3.00;1.60;;;21.20;25.70;;;;;;4875607;29;20440;-78
2022/07/08 11:07:23;;;;;;;2.80;1.67;;;21.20;25.20;;;;;;4871772;29;20462;-78
2022/07/08 11:09:51;;;;;;;6.93;2.00;;;21.10;25.10;;;;;;4869854;29;20471;-77
2022/07/08 11:12:20;;;;;;;2.83;1.60;;;21.10;25.90;;;;;;4867774;29;20458;-78
2022/07/08 11:14:50;;;;;;;3.50;2.53;;;21.10;25.40;;;;;;4868699;29;20514;-78
2022/07/08 11:17:17;;;;;;;4.50;2.13;;;21.00;26.00;;;;;;4867679;29;20462;-78
2022/07/08 11:19:45;;;;;;;3.70;1.93;;;21.00;26.10;;;;;;4868145;29;20486;-78
2022/07/08 11:22:12;;;;;;;3.63;1.67;;;20.90;26.20;;;;;;4865629;29;20473;-78
2022/07/08 11:24:39;;;;;;;5.07;2.20;;;21.30;25.90;;;;;;4867066;29;20468;-77
2022/07/08 11:27:07;;;;;;;4.80;2.37;;;21.30;25.10;;;;;;4866168;29;20465;-78
2022/07/08 11:29:34;;;;;;;2.40;1.80;;;21.30;25.40;;;;;;4867188;29;20486;-77
2022/07/08 11:32:04;;;;;;;4.53;2.10;;;21.30;25.50;;;;;;4866502;29;20461;-77
2022/07/08 11:34:31;;;;;;;4.17;1.83;;;21.30;25.70;;;;;;4870619;29;20466;-78
2022/07/08 11:36:59;;;;;;;5.27;1.80;;;21.50;25.00;;;;;;4878207;29;20496;-77
2022/07/08 11:39:26;;;;;;;3.00;1.70;;;21.60;24.50;;;;;;4865691;29;20486;-77
2022/07/08 11:41:53;;;;;;;6.30;2.67;;;21.50;24.20;;;;;;4864373;29;20522;-76
2022/07/08 11:44:21;;;;;;;4.30;1.40;;;21.50;24.20;;;;;;4864907;29;20468;-77
2022/07/08 11:46:49;;;;;;;6.40;1.97;;;21.70;24.90;;;;;;4865683;29;20436;-78
2022/07/08 11:49:19;;;;;;;5.67;1.90;;;21.70;24.50;;;;;;4865681;29;20561;-77
2022/07/08 11:51:46;;;;;;;1.90;1.70;;;21.60;25.30;;;;;;4865096;29;20462;-78
2022/07/08 11:54:13;;;;;;;3.93;2.00;;;21.80;24.20;;;;;;4866588;29;20454;-77
2022/07/08 11:56:40;;;;;;;5.77;1.50;;;21.70;24.10;;;;;;4865264;29;20466;-77
2022/07/08 11:59:07;;;;;;;3.00;1.40;;;21.70;24.50;;;;;;4868385;29;20462;-78
2022/07/08 12:01:35;;;;;;;4.33;1.60;;;21.70;24.30;;;;;;4871348;29;20461;-77
2022/07/08 12:04:05;;;;;;;4.63;1.83;;;21.90;24.90;;;;;;4869045;29;20502;-78
2022/07/08 12:06:34;;;;;;;3.87;1.63;;;21.70;23.90;;;;;;4864413;29;20440;-77
2022/07/08 12:09:09;;;;;;;3.97;2.10;;;21.60;23.90;;;;;;4873476;29;20478;-77
2022/07/08 12:11:41;;;;;;;4.47;1.53;;;21.70;23.20;;;;;;4874051;29;20507;-77
2022/07/08 12:14:09;;;;;;;4.40;1.90;;;21.80;23.20;;;;;;4877363;29;20545;-76
2022/07/08 12:16:42;;;;;;;2.30;1.50;;;21.70;23.80;;;;;;4881072;29;20446;-76
2022/07/08 12:19:25;;;;;;;3.77;1.57;;;21.90;23.90;;;;;;4882206;29;20470;-76
2022/07/08 12:21:54;;;;;;;3.40;1.40;;;21.90;23.60;;;;;;4882601;29;20446;-76
2022/07/08 12:24:25;;;;;;;3.77;1.83;;;22.00;24.10;;;;;;4884207;29;20505;-79
2022/07/08 12:26:56;;;;;;;5.73;1.70;;;22.00;23.00;;;;;;4880424;29;20825;-76
2022/07/08 12:29:24;;;;;;;5.20;1.70;;;22.10;23.00;;;;;;4881968;29;20509;-77
2022/07/08 12:31:52;;;;;;;4.03;1.70;;;22.00;22.10;;;;;;4879103;29;20446;-77
2022/07/08 12:34:21;;;;;;;3.00;1.70;;;21.90;22.70;;;;;;4878737;29;21018;-77
2022/07/08 12:36:48;;;;;;;3.57;1.80;;;22.20;22.30;;;;;;4878968;29;20440;-77
2022/07/08 12:39:19;;;;;;;4.47;1.57;;;22.20;22.30;;;;;;4878749;29;20493;-77
2022/07/08 12:41:59;;;;;;;4.97;1.57;;;22.10;22.70;;;;;;4875941;29;20464;-77
2022/07/08 12:44:39;;;;;;;4.00;1.53;;;22.20;22.30;;;;;;4872264;29;20499;-77
2022/07/08 12:47:08;;;;;;;5.03;1.80;;;22.40;22.40;;;;;;4867823;29;20989;-77
2022/07/08 12:49:36;;;;;;;1.60;1.27;;;22.60;22.60;;;;;;4866515;29;20517;-76